createdAt,value
2023-03-08T00:00:08.851Z,7.80
2023-03-08T00:02:38.304Z,7.82
2023-03-08T00:05:06.796Z,8.27
2023-03-08T00:07:34.231Z,9.88
2023-03-08T00:10:01.800Z,11.07
2023-03-08T00:12:29.392Z,10.80
2023-03-08T00:14:56.530Z,9.43
2023-03-08T00:17:29.065Z,8.18
2023-03-08T00:19:56.559Z,7.20
2023-03-08T00:22:23.860Z,7.65
2023-03-08T00:25:54.068Z,8.00
2023-03-08T00:29:11.165Z,8.20
2023-03-08T00:31:38.378Z,10.93
2023-03-08T00:37:12.277Z,9.30
2023-03-08T00:39:39.833Z,8.15
2023-03-08T00:42:07.097Z,11.98
2023-03-08T00:44:34.332Z,12.80
2023-03-08T00:47:01.591Z,9.50
2023-03-08T00:49:29.152Z,8.15
2023-03-08T00:51:58.279Z,8.63
2023-03-08T00:54:25.493Z,8.25
2023-03-08T00:56:52.819Z,7.65
2023-03-08T00:59:20.160Z,8.98
2023-03-08T01:01:51.630Z,8.45
2023-03-08T01:04:19.618Z,8.55
2023-03-08T01:06:47.052Z,8.45
2023-03-08T01:09:14.094Z,8.32
2023-03-08T01:11:41.329Z,8.68
2023-03-08T01:14:09.068Z,8.90
2023-03-08T01:16:39.402Z,7.70
2023-03-08T01:19:06.534Z,7.40
2023-03-08T01:21:33.598Z,7.55
2023-03-08T01:24:01.061Z,6.97
2023-03-08T01:26:29.103Z,6.75
2023-03-08T01:28:56.896Z,7.40
2023-03-08T01:31:31.618Z,7.65
2023-03-08T01:34:04.244Z,7.40
2023-03-08T01:39:01.656Z,6.65
2023-03-08T01:41:30.756Z,7.20
2023-03-08T01:43:58.256Z,6.40
2023-03-08T01:46:31.112Z,6.47
2023-03-08T01:49:22.902Z,6.35
2023-03-08T01:52:07.283Z,6.45
2023-03-08T01:54:40.335Z,7.50
2023-03-08T01:57:15.853Z,7.88
2023-03-08T01:59:44.177Z,7.18
2023-03-08T02:05:25.455Z,6.65
2023-03-08T02:07:57.868Z,7.25
2023-03-08T02:10:31.176Z,6.78
2023-03-08T02:12:58.487Z,7.05
2023-03-08T02:15:26.070Z,6.90
2023-03-08T02:17:59.935Z,6.30
2023-03-08T02:20:31.580Z,6.60
2023-03-08T02:23:09.224Z,6.18
2023-03-08T02:25:36.381Z,6.32
2023-03-08T02:28:07.633Z,6.40
2023-03-08T02:30:37.602Z,7.15
2023-03-08T02:33:05.063Z,6.78
2023-03-08T02:35:32.543Z,7.65
2023-03-08T02:38:00.078Z,7.10
2023-03-08T02:41:27.098Z,6.47
2023-03-08T02:43:54.389Z,6.53
2023-03-08T02:46:21.580Z,6.18
2023-03-08T02:48:50.280Z,6.60
2023-03-08T02:51:17.654Z,7.18
2023-03-08T02:53:44.903Z,6.07
2023-03-08T02:56:12.336Z,6.40
2023-03-08T02:58:39.526Z,6.80
2023-03-08T03:01:14.577Z,6.43
2023-03-08T03:03:43.015Z,7.25
2023-03-08T03:06:19.004Z,7.03
2023-03-08T03:08:49.651Z,6.57
2023-03-08T03:11:59.163Z,6.95
2023-03-08T03:14:30.356Z,6.38
2023-03-08T03:16:58.938Z,6.93
2023-03-08T03:19:27.599Z,6.68
2023-03-08T03:21:57.212Z,6.73
2023-03-08T03:24:24.634Z,6.10
2023-03-08T03:27:33.873Z,6.93
2023-03-08T03:30:03.354Z,7.50
2023-03-08T03:32:33.546Z,6.57
2023-03-08T03:36:18.078Z,6.95
2023-03-08T03:38:46.340Z,6.72
2023-03-08T03:41:18.977Z,7.32
2023-03-08T03:43:48.439Z,6.53
2023-03-08T03:46:18.236Z,6.78
2023-03-08T03:48:48.882Z,7.03
2023-03-08T03:51:21.501Z,7.05
2023-03-08T03:53:54.713Z,7.45
2023-03-08T03:56:24.406Z,7.15
2023-03-08T03:58:54.837Z,7.70
2023-03-08T04:01:27.703Z,7.47
2023-03-08T04:04:01.204Z,7.40
2023-03-08T04:06:33.775Z,8.00
2023-03-08T04:09:07.623Z,8.40
2023-03-08T04:11:41.818Z,7.53
2023-03-08T04:14:15.268Z,8.52
2023-03-08T04:16:43.428Z,7.75
2023-03-08T04:19:18.925Z,7.30
2023-03-08T04:21:51.759Z,7.95
2023-03-08T04:24:22.171Z,8.65
2023-03-08T04:26:53.464Z,7.80
2023-03-08T04:29:22.011Z,8.00
2023-03-08T04:31:49.284Z,7.60
2023-03-08T04:34:19.411Z,8.07
2023-03-08T04:36:49.580Z,8.15
2023-03-08T04:39:21.073Z,8.35
2023-03-08T04:41:48.580Z,8.10
2023-03-08T04:44:24.361Z,8.63
2023-03-08T04:46:54.140Z,8.55
2023-03-08T04:50:10.435Z,8.23
2023-03-08T04:52:38.387Z,8.27
2023-03-08T04:55:07.189Z,8.90
2023-03-08T04:57:35.404Z,8.30
2023-03-08T05:00:06.174Z,8.48
2023-03-08T05:02:38.247Z,8.00
2023-03-08T05:05:10.185Z,8.52
2023-03-08T05:07:37.573Z,8.45
2023-03-08T05:10:06.423Z,8.52
2023-03-08T05:12:37.208Z,9.10
2023-03-08T05:15:05.436Z,8.68
2023-03-08T05:17:32.781Z,8.85
2023-03-08T05:20:03.786Z,8.48
2023-03-08T05:22:51.405Z,9.35
2023-03-08T05:25:23.919Z,8.23
2023-03-08T05:27:51.767Z,9.27
2023-03-08T05:30:23.858Z,8.73
2023-03-08T05:32:52.465Z,9.50
2023-03-08T05:35:20.565Z,8.40
2023-03-08T05:38:16.127Z,8.45
2023-03-08T05:40:43.617Z,8.95
2023-03-08T05:43:14.401Z,9.95
2023-03-08T05:45:43.023Z,9.00
2023-03-08T05:48:10.772Z,9.85
2023-03-08T05:51:36.452Z,8.60
2023-03-08T05:55:20.936Z,9.23
2023-03-08T05:57:49.124Z,10.52
2023-03-08T06:00:18.936Z,9.63
2023-03-08T06:02:51.467Z,9.32
2023-03-08T06:05:21.244Z,8.98
2023-03-08T06:07:51.942Z,9.88
2023-03-08T06:13:37.865Z,10.07
2023-03-08T06:16:06.874Z,10.60
2023-03-08T06:18:36.973Z,10.13
2023-03-08T06:24:13.800Z,9.82
2023-03-08T06:26:41.532Z,9.77
2023-03-08T06:29:14.613Z,9.43
2023-03-08T06:31:46.029Z,10.93
2023-03-08T06:34:17.604Z,10.05
2023-03-08T06:36:46.020Z,10.23
2023-03-08T06:39:13.879Z,11.02
2023-03-08T06:46:40.510Z,9.88
2023-03-08T06:49:10.764Z,10.10
2023-03-08T06:51:40.050Z,10.23
2023-03-08T06:54:07.528Z,11.55
2023-03-08T06:56:34.639Z,40.03
2023-03-08T07:02:48.857Z,13.45
2023-03-08T07:05:16.994Z,12.63
2023-03-08T07:07:48.465Z,14.90
2023-03-08T07:10:18.852Z,13.57
2023-03-08T07:12:48.821Z,13.65
2023-03-08T07:15:19.109Z,12.00
2023-03-08T07:17:47.786Z,11.82
2023-03-08T07:20:21.636Z,11.98
2023-03-08T07:22:50.084Z,12.40
2023-03-08T07:25:21.316Z,12.73
2023-03-08T07:27:48.525Z,12.05
2023-03-08T07:30:22.998Z,13.23
2023-03-08T07:32:50.567Z,12.68
2023-03-08T07:35:18.695Z,12.05
2023-03-08T07:37:47.535Z,13.15
2023-03-08T07:40:21.967Z,12.27
2023-03-08T07:42:51.719Z,11.98
2023-03-08T07:45:53.716Z,11.95
2023-03-08T07:54:11.585Z,13.27
2023-03-08T08:00:25.446Z,14.68
2023-03-08T08:03:39.598Z,14.80
2023-03-08T08:06:09.202Z,13.65
2023-03-08T08:08:37.678Z,13.95
2023-03-08T08:11:16.170Z,14.20
2023-03-08T08:13:49.794Z,13.80
2023-03-08T08:26:49.898Z,12.98
2023-03-08T08:32:59.861Z,11.43
2023-03-08T08:35:49.045Z,13.80
2023-03-08T08:38:17.892Z,13.02
2023-03-08T08:44:12.337Z,13.07
2023-03-08T08:46:41.407Z,10.32
2023-03-08T08:49:08.503Z,13.05
2023-03-08T08:51:43.041Z,13.88
2023-03-08T08:54:19.798Z,13.65
2023-03-08T08:56:50.640Z,14.23
2023-03-08T08:59:20.692Z,14.25
2023-03-08T09:01:55.418Z,15.20
2023-03-08T09:04:30.400Z,15.27
2023-03-08T09:10:11.505Z,15.18
2023-03-08T09:12:43.696Z,15.35
2023-03-08T09:18:34.696Z,17.90
2023-03-08T09:21:45.047Z,17.02
2023-03-08T09:27:19.571Z,20.13
2023-03-08T09:30:33.079Z,20.75
2023-03-08T09:33:19.175Z,14.05
2023-03-08T09:39:54.889Z,22.25
2023-03-08T09:48:45.153Z,26.88
2023-03-08T09:51:15.096Z,26.15
2023-03-08T09:53:55.033Z,26.30
2023-03-08T09:57:02.600Z,26.00
2023-03-08T10:00:08.962Z,23.92
2023-03-08T10:09:48.982Z,25.15
2023-03-08T10:24:10.477Z,20.95
2023-03-08T10:26:49.354Z,21.33
2023-03-08T10:35:48.816Z,20.65
2023-03-08T10:41:33.107Z,20.48
2023-03-08T10:44:02.736Z,20.45
2023-03-08T10:46:32.129Z,20.45
2023-03-08T10:49:16.581Z,20.23
2023-03-08T10:52:01.950Z,18.75
2023-03-08T10:54:37.855Z,17.75
2023-03-08T10:57:08.164Z,18.20
2023-03-08T10:59:36.615Z,19.30
2023-03-08T11:02:23.851Z,18.90
2023-03-08T11:04:59.889Z,18.70
2023-03-08T11:07:32.821Z,18.92
2023-03-08T11:10:18.160Z,18.05
2023-03-08T11:12:49.015Z,18.67
2023-03-08T11:15:21.673Z,17.98
2023-03-08T11:18:12.171Z,17.65
2023-03-08T11:20:56.378Z,17.98
2023-03-08T11:23:42.504Z,18.80
2023-03-08T11:26:48.186Z,17.10
2023-03-08T11:29:57.017Z,16.88
2023-03-08T11:32:49.766Z,16.63
2023-03-08T11:35:40.444Z,17.33
2023-03-08T11:38:23.209Z,16.20
2023-03-08T11:41:15.553Z,15.30
2023-03-08T11:43:54.818Z,15.38
2023-03-08T11:46:50.809Z,15.35
2023-03-08T11:49:37.314Z,13.75
2023-03-08T11:56:39.968Z,15.10
2023-03-08T11:59:29.280Z,14.55
2023-03-08T12:02:10.403Z,13.35
2023-03-08T12:04:46.624Z,12.02
2023-03-08T12:07:29.532Z,13.88
2023-03-08T12:10:15.709Z,13.77
2023-03-08T12:12:48.971Z,14.35
2023-03-08T12:15:33.910Z,11.75
2023-03-08T12:18:29.263Z,12.18
2023-03-08T12:21:18.625Z,13.10
2023-03-08T12:24:13.741Z,13.32
2023-03-08T12:26:50.188Z,12.55
2023-03-08T12:29:37.540Z,12.30
2023-03-08T12:32:06.788Z,12.07
2023-03-08T12:34:40.665Z,12.15
2023-03-08T12:37:25.480Z,11.68
2023-03-08T12:40:38.626Z,11.57
2023-03-08T12:43:14.591Z,12.95
2023-03-08T12:45:45.151Z,11.45
2023-03-08T12:48:36.782Z,12.40
2023-03-08T12:51:59.231Z,12.75
2023-03-08T12:55:17.704Z,13.10
2023-03-08T12:58:17.199Z,13.73
2023-03-08T13:15:39.470Z,14.50
2023-03-08T13:29:39.555Z,13.00
2023-03-08T13:32:48.909Z,13.18
2023-03-08T13:35:20.234Z,13.25
2023-03-08T13:41:14.360Z,12.95
2023-03-08T13:43:53.647Z,12.60
2023-03-08T13:49:53.454Z,10.48
2023-03-08T13:59:02.117Z,9.80
2023-03-08T14:01:35.488Z,10.10
2023-03-08T14:04:58.588Z,10.63
2023-03-08T14:07:33.982Z,6.95
2023-03-08T14:10:02.398Z,7.57
2023-03-08T14:49:42.601Z,8.02
2023-03-08T14:52:25.938Z,8.00
2023-03-08T14:54:56.197Z,8.02
2023-03-08T15:03:59.168Z,8.57
2023-03-08T15:06:32.051Z,9.30
2023-03-08T15:09:09.852Z,9.13
2023-03-08T15:11:37.580Z,9.60
2023-03-08T15:14:06.224Z,9.35
2023-03-08T15:16:33.453Z,9.15
2023-03-08T15:19:00.749Z,9.23
2023-03-08T15:21:30.840Z,10.68
2023-03-08T15:23:58.937Z,10.65
2023-03-08T15:26:32.372Z,10.27
2023-03-08T15:29:03.774Z,9.90
2023-03-08T15:31:31.862Z,9.35
2023-03-08T15:33:59.381Z,10.60
2023-03-08T15:36:26.366Z,9.73
2023-03-08T15:38:53.716Z,10.18
2023-03-08T15:41:21.063Z,9.95
2023-03-08T15:43:50.465Z,10.35
2023-03-08T15:46:17.545Z,10.63
2023-03-08T15:48:46.589Z,10.95
2023-03-08T15:51:23.360Z,11.00
2023-03-08T15:53:57.706Z,10.18
2023-03-08T15:59:21.803Z,9.82
2023-03-08T16:29:06.476Z,9.52
2023-03-08T17:04:06.205Z,11.10
2023-03-08T17:06:40.337Z,11.27
2023-03-08T17:18:02.753Z,12.77
2023-03-08T17:27:08.476Z,12.40
2023-03-08T17:29:36.253Z,14.90
2023-03-08T17:32:04.399Z,14.70
2023-03-08T17:34:31.778Z,13.35
2023-03-08T17:36:59.039Z,13.48
2023-03-08T17:42:38.138Z,13.93
2023-03-08T17:45:09.854Z,13.18
2023-03-08T17:48:08.235Z,14.40
2023-03-08T17:50:35.365Z,13.15
2023-03-08T17:53:06.840Z,14.18
2023-03-08T17:59:01.905Z,14.30
2023-03-08T18:01:35.014Z,14.80
2023-03-08T18:04:05.683Z,12.88
2023-03-08T18:06:40.204Z,13.77
2023-03-08T18:09:16.888Z,12.73
2023-03-08T18:11:52.659Z,15.38
2023-03-08T18:14:55.421Z,14.20
2023-03-08T18:17:24.573Z,14.88
2023-03-08T18:19:54.121Z,14.25
2023-03-08T18:22:24.416Z,14.30
2023-03-08T18:27:35.533Z,15.10
2023-03-08T18:32:55.189Z,15.40
2023-03-08T18:35:22.634Z,14.43
2023-03-08T18:37:49.651Z,16.20
2023-03-08T18:40:17.139Z,15.65
2023-03-08T18:42:45.000Z,15.40
2023-03-08T18:45:13.092Z,15.48
2023-03-08T18:47:40.281Z,18.15
2023-03-08T18:50:10.022Z,17.33
2023-03-08T18:52:38.338Z,22.48
2023-03-08T18:55:06.275Z,39.67
2023-03-08T18:57:33.201Z,35.17
2023-03-08T19:00:03.196Z,23.33
2023-03-08T19:02:30.830Z,19.50
2023-03-08T19:05:00.143Z,25.83
2023-03-08T19:07:27.732Z,17.63
2023-03-08T19:48:03.164Z,15.80
2023-03-08T19:50:33.879Z,14.85
2023-03-08T19:53:19.873Z,15.85
2023-03-08T20:06:01.133Z,16.13
2023-03-08T20:11:41.098Z,16.23
2023-03-08T20:17:09.074Z,16.20
2023-03-08T20:32:51.224Z,18.00
2023-03-08T20:38:45.306Z,20.50
2023-03-08T20:41:20.977Z,19.88
2023-03-08T20:46:52.969Z,20.50
2023-03-08T20:49:24.165Z,20.58
2023-03-08T20:51:53.150Z,20.15
2023-03-08T20:54:21.492Z,19.92
2023-03-08T20:56:52.165Z,19.05
2023-03-08T20:59:40.969Z,19.17
2023-03-08T21:02:14.780Z,19.40
2023-03-08T21:04:43.254Z,20.38
2023-03-08T21:09:57.598Z,21.60
2023-03-08T21:12:26.981Z,19.45
2023-03-08T21:14:54.685Z,22.23
2023-03-08T21:17:22.196Z,22.67
2023-03-08T21:19:49.637Z,20.27
2023-03-08T21:22:16.816Z,20.52
2023-03-08T21:24:47.916Z,20.63
2023-03-08T21:30:14.400Z,20.30
2023-03-08T21:32:45.361Z,21.15
2023-03-08T21:35:13.832Z,21.63
2023-03-08T21:37:42.121Z,21.35
2023-03-08T21:40:23.816Z,21.38
2023-03-08T21:48:26.226Z,21.45
2023-03-08T21:50:53.411Z,22.58
2023-03-08T21:58:54.017Z,24.42
2023-03-08T22:07:58.572Z,22.80
2023-03-08T22:13:14.605Z,23.13
2023-03-08T22:18:27.742Z,21.05
2023-03-08T22:26:48.559Z,21.40
2023-03-08T22:29:23.158Z,20.45
2023-03-08T22:31:52.347Z,22.02
2023-03-08T22:34:24.852Z,18.45
2023-03-08T22:39:34.216Z,17.17
2023-03-08T22:42:06.704Z,16.55
2023-03-08T22:44:37.024Z,19.45
2023-03-08T22:59:45.440Z,15.90
2023-03-08T23:05:00.210Z,14.88
2023-03-08T23:10:18.339Z,15.02
2023-03-08T23:12:59.520Z,15.70
2023-03-08T23:21:12.295Z,15.18
2023-03-08T23:23:39.821Z,14.80
2023-03-08T23:26:11.752Z,14.93
2023-03-08T23:28:39.794Z,14.07
2023-03-08T23:31:16.675Z,14.13
2023-03-08T23:33:56.154Z,14.68
2023-03-08T23:36:58.105Z,14.05
2023-03-08T23:39:28.736Z,14.20
2023-03-08T23:41:56.897Z,13.77
2023-03-08T23:44:24.164Z,14.73
2023-03-08T23:46:53.187Z,13.80
2023-03-08T23:49:21.622Z,13.65
2023-03-08T23:51:48.952Z,13.85
2023-03-08T23:54:16.168Z,13.00
2023-03-08T23:56:45.460Z,13.00
2023-03-08T23:59:51.844Z,13.23
